QNT531 VVNB-VHHH
Flight info
| Callsign | QNT531 |
|---|---|
| Flight time | 1h 24m |
| Altitude | 35100 |
| Route | NAKHA3A NAKHA R474 GYA A599 POU R473 SIERA/N0465F351 |
| Aircraft | A21N/M-SDE3FGHIRWY/LB1 |
Departure
| Time | 2026-05-08 12:41 |
|---|---|
| Airport | Noi Bai International Airport (VVNB) |
Arrival
| Time | 2026-05-08 14:06 |
|---|---|
| Airport | Hong Kong International Airport (VHHH) |
| Time | Latitude | Longitude | Altitude | Speed | Heading |
|---|---|---|---|---|---|
| 2026-05-08 12:23 | 21.22002 | 105.78930 | 47 ft | 0 kts | 198° |
| 2026-05-08 12:34 | 21.22015 | 105.78934 | 47 ft | 2 kts | 198° |
| 2026-05-08 12:34 | 21.22029 | 105.78939 | 47 ft | 2 kts | 198° |
| 2026-05-08 12:34 | 21.22043 | 105.78947 | 47 ft | 2 kts | 224° |
| 2026-05-08 12:34 | 21.22052 | 105.78960 | 48 ft | 2 kts | 244° |
| 2026-05-08 12:35 | 21.22057 | 105.78975 | 48 ft | 2 kts | 265° |
| 2026-05-08 12:35 | 21.22057 | 105.78983 | 48 ft | 1 kts | 276° |
| 2026-05-08 12:35 | 21.22056 | 105.78989 | 48 ft | 0 kts | 275° |
| 2026-05-08 12:37 | 21.22056 | 105.78988 | 48 ft | 0 kts | 276° |
| 2026-05-08 12:37 | 21.22069 | 105.78968 | 48 ft | 6 kts | 324° |
| 2026-05-08 12:37 | 21.22117 | 105.78921 | 48 ft | 11 kts | 301° |
| 2026-05-08 12:37 | 21.22146 | 105.78830 | 48 ft | 14 kts | 287° |
| 2026-05-08 12:38 | 21.22179 | 105.78722 | 48 ft | 16 kts | 288° |
| 2026-05-08 12:38 | 21.22207 | 105.78628 | 48 ft | 6 kts | 288° |
| 2026-05-08 12:38 | 21.22241 | 105.78585 | 48 ft | 9 kts | 332° |
| 2026-05-08 12:38 | 21.22303 | 105.78591 | 48 ft | 7 kts | 17° |
| 2026-05-08 12:39 | 21.22364 | 105.78611 | 48 ft | 10 kts | 18° |
| 2026-05-08 12:39 | 21.22419 | 105.78631 | 48 ft | 0 kts | 22° |
| 2026-05-08 12:39 | 21.22427 | 105.78635 | 48 ft | 2 kts | 32° |
| 2026-05-08 12:39 | 21.22443 | 105.78655 | 48 ft | 4 kts | 61° |
| 2026-05-08 12:40 | 21.22448 | 105.78694 | 48 ft | 6 kts | 94° |
| 2026-05-08 12:40 | 21.22438 | 105.78745 | 48 ft | 8 kts | 109° |
| 2026-05-08 12:40 | 21.22396 | 105.78889 | 48 ft | 48 kts | 108° |
| 2026-05-08 12:40 | 21.22226 | 105.79478 | 52 ft | 115 kts | 107° |
| 2026-05-08 12:41 | 21.21938 | 105.80502 | 52 ft | 170 kts | 109° |
| 2026-05-08 12:41 | 21.21567 | 105.81776 | 499 ft | 180 kts | 106° |
| 2026-05-08 12:41 | 21.21204 | 105.83048 | 1162 ft | 182 kts | 104° |
| 2026-05-08 12:41 | 21.20849 | 105.84326 | 1906 ft | 177 kts | 104° |
| 2026-05-08 12:42 | 21.20507 | 105.85568 | 2364 ft | 180 kts | 102° |
| 2026-05-08 12:42 | 21.20190 | 105.86902 | 2714 ft | 190 kts | 101° |
| 2026-05-08 12:42 | 21.19852 | 105.88298 | 3130 ft | 198 kts | 101° |
| 2026-05-08 12:42 | 21.19521 | 105.89735 | 3614 ft | 203 kts | 100° |
| 2026-05-08 12:43 | 21.19131 | 105.91228 | 3957 ft | 219 kts | 105° |
| 2026-05-08 12:43 | 21.18618 | 105.92832 | 4272 ft | 237 kts | 107° |
| 2026-05-08 12:43 | 21.18070 | 105.94581 | 4646 ft | 254 kts | 106° |
| 2026-05-08 12:43 | 21.17535 | 105.96425 | 5069 ft | 268 kts | 102° |
| 2026-05-08 12:44 | 21.17528 | 105.98416 | 5656 ft | 271 kts | 73° |
| 2026-05-08 12:44 | 21.18429 | 106.00163 | 6300 ft | 274 kts | 46° |
| 2026-05-08 12:44 | 21.19985 | 106.01356 | 6933 ft | 277 kts | 29° |
| 2026-05-08 12:44 | 21.21677 | 106.02367 | 7569 ft | 282 kts | 29° |
| 2026-05-08 12:45 | 21.23392 | 106.03403 | 8181 ft | 286 kts | 30° |
| 2026-05-08 12:45 | 21.25141 | 106.04472 | 8769 ft | 291 kts | 30° |
| 2026-05-08 12:45 | 21.26901 | 106.05557 | 9367 ft | 295 kts | 30° |
| 2026-05-08 12:45 | 21.28693 | 106.06668 | 9956 ft | 299 kts | 30° |
| 2026-05-08 12:46 | 21.30518 | 106.07802 | 10444 ft | 306 kts | 30° |
| 2026-05-08 12:46 | 21.32405 | 106.08975 | 10707 ft | 321 kts | 30° |
| 2026-05-08 12:46 | 21.34395 | 106.10215 | 10955 ft | 336 kts | 30° |
| 2026-05-08 12:46 | 21.36435 | 106.11488 | 11190 ft | 349 kts | 30° |
| 2026-05-08 12:47 | 21.38609 | 106.12845 | 11441 ft | 363 kts | 31° |
| 2026-05-08 12:47 | 21.40825 | 106.14228 | 11786 ft | 371 kts | 31° |
| 2026-05-08 12:47 | 21.43044 | 106.15615 | 12296 ft | 373 kts | 31° |
| 2026-05-08 12:47 | 21.45303 | 106.17026 | 12829 ft | 375 kts | 31° |
| 2026-05-08 12:48 | 21.47559 | 106.18437 | 13324 ft | 377 kts | 31° |
| 2026-05-08 12:48 | 21.49819 | 106.19853 | 13792 ft | 379 kts | 31° |
| 2026-05-08 12:48 | 21.52108 | 106.21288 | 14257 ft | 381 kts | 31° |
| 2026-05-08 12:48 | 21.54414 | 106.22735 | 14717 ft | 384 kts | 31° |
| 2026-05-08 12:49 | 21.56750 | 106.24198 | 15173 ft | 386 kts | 31° |
| 2026-05-08 12:49 | 21.59049 | 106.25640 | 15613 ft | 387 kts | 31° |
| 2026-05-08 12:49 | 21.61419 | 106.27126 | 16037 ft | 390 kts | 31° |
| 2026-05-08 12:49 | 21.63759 | 106.28596 | 16452 ft | 392 kts | 31° |
| 2026-05-08 12:50 | 21.66130 | 106.30084 | 16867 ft | 394 kts | 30° |
| 2026-05-08 12:50 | 21.90062 | 106.45171 | 20349 ft | 397 kts | 30° |
| 2026-05-08 12:50 | 21.92467 | 106.46677 | 20472 ft | 406 kts | 29° |
| 2026-05-08 12:50 | 21.94937 | 106.48251 | 20608 ft | 414 kts | 31° |
| 2026-05-08 12:51 | 21.97355 | 106.49987 | 20740 ft | 421 kts | 34° |
| 2026-05-08 12:51 | 22.02041 | 106.53928 | 21203 ft | 429 kts | 38° |
| 2026-05-08 12:51 | 22.19029 | 106.68865 | 23162 ft | 431 kts | 38° |
| 2026-05-08 12:52 | 22.28380 | 106.77474 | 23794 ft | 440 kts | 49° |
| 2026-05-08 12:52 | 22.32161 | 106.82782 | 24039 ft | 451 kts | 49° |
| 2026-05-08 12:52 | 22.34107 | 106.85425 | 24183 ft | 457 kts | 54° |
| 2026-05-08 12:53 | 22.35682 | 106.88469 | 24389 ft | 461 kts | 65° |
| 2026-05-08 12:53 | 22.36667 | 106.91747 | 24606 ft | 463 kts | 77° |
| 2026-05-08 12:53 | 22.37308 | 106.95141 | 24851 ft | 465 kts | 79° |
| 2026-05-08 12:53 | 22.39627 | 107.08836 | 25791 ft | 467 kts | 79° |
| 2026-05-08 12:54 | 22.43256 | 107.29594 | 26902 ft | 471 kts | 77° |
| 2026-05-08 12:54 | 22.45335 | 107.40282 | 27210 ft | 476 kts | 77° |
| 2026-05-08 12:54 | 22.55439 | 107.97028 | 28924 ft | 480 kts | 79° |
| 2026-05-08 12:54 | 22.63853 | 108.49771 | 30534 ft | 485 kts | 83° |
| 2026-05-08 12:55 | 22.67104 | 109.08871 | 33573 ft | 486 kts | 84° |
| 2026-05-08 12:55 | 22.73531 | 109.55738 | 35559 ft | 488 kts | 73° |
| 2026-05-08 12:55 | 22.74344 | 109.59308 | 35243 ft | 491 kts | 75° |
| 2026-05-08 12:55 | 22.75027 | 109.62916 | 35142 ft | 492 kts | 77° |
| 2026-05-08 12:56 | 22.76095 | 109.70259 | 35094 ft | 493 kts | 81° |
| 2026-05-08 12:56 | 22.76972 | 109.77612 | 35089 ft | 494 kts | 81° |
| 2026-05-08 12:57 | 22.77811 | 109.85026 | 35087 ft | 494 kts | 81° |
| 2026-05-08 12:57 | 22.78634 | 109.92376 | 35081 ft | 493 kts | 81° |
| 2026-05-08 12:58 | 22.79094 | 109.96494 | 35078 ft | 493 kts | 81° |
| 2026-05-08 12:58 | 22.79920 | 110.03887 | 35079 ft | 494 kts | 81° |
| 2026-05-08 12:59 | 22.80736 | 110.11249 | 35079 ft | 494 kts | 81° |
| 2026-05-08 12:59 | 22.81534 | 110.18501 | 35077 ft | 470 kts | 81° |
| 2026-05-08 13:00 | 22.82296 | 110.25438 | 35086 ft | 465 kts | 81° |
| 2026-05-08 13:00 | 22.83059 | 110.32396 | 35089 ft | 464 kts | 81° |
| 2026-05-08 13:01 | 22.83818 | 110.39339 | 35091 ft | 464 kts | 81° |
| 2026-05-08 13:01 | 22.84571 | 110.46272 | 35090 ft | 464 kts | 81° |
| 2026-05-08 13:02 | 22.85314 | 110.53163 | 35094 ft | 464 kts | 81° |
| 2026-05-08 13:02 | 22.86101 | 110.60117 | 35101 ft | 463 kts | 80° |
| 2026-05-08 13:03 | 22.86923 | 110.67011 | 35105 ft | 463 kts | 81° |
| 2026-05-08 13:03 | 22.87739 | 110.73931 | 35115 ft | 463 kts | 81° |
| 2026-05-08 13:04 | 22.88539 | 110.80810 | 35112 ft | 463 kts | 81° |
| 2026-05-08 13:04 | 22.89340 | 110.87725 | 35107 ft | 463 kts | 81° |
| 2026-05-08 13:05 | 22.90131 | 110.94546 | 35101 ft | 456 kts | 81° |
| 2026-05-08 13:05 | 22.90922 | 111.01362 | 35092 ft | 456 kts | 81° |
| 2026-05-08 13:06 | 22.91707 | 111.08170 | 35089 ft | 456 kts | 81° |
| 2026-05-08 13:06 | 22.92487 | 111.14988 | 35092 ft | 456 kts | 81° |
| 2026-05-08 13:07 | 22.93261 | 111.21780 | 35091 ft | 456 kts | 81° |
| 2026-05-08 13:07 | 22.94031 | 111.28571 | 35091 ft | 456 kts | 81° |
| 2026-05-08 13:08 | 22.94806 | 111.35420 | 35096 ft | 456 kts | 81° |
| 2026-05-08 13:08 | 22.95570 | 111.42213 | 35095 ft | 456 kts | 81° |
| 2026-05-08 13:09 | 22.96333 | 111.49029 | 35098 ft | 457 kts | 81° |
| 2026-05-08 13:09 | 22.97090 | 111.55827 | 35095 ft | 456 kts | 81° |
| 2026-05-08 13:10 | 22.97854 | 111.62708 | 35095 ft | 465 kts | 81° |
| 2026-05-08 13:10 | 22.98618 | 111.69648 | 35088 ft | 478 kts | 82° |
| 2026-05-08 13:11 | 22.99413 | 111.76939 | 35089 ft | 490 kts | 82° |
| 2026-05-08 13:11 | 23.00210 | 111.84308 | 35090 ft | 493 kts | 82° |
| 2026-05-08 13:12 | 23.01002 | 111.91680 | 35094 ft | 495 kts | 82° |
| 2026-05-08 13:12 | 23.01794 | 111.99058 | 35096 ft | 494 kts | 82° |
| 2026-05-08 13:13 | 23.02585 | 112.06474 | 35097 ft | 494 kts | 82° |
| 2026-05-08 13:13 | 23.03371 | 112.13875 | 35098 ft | 494 kts | 82° |
| 2026-05-08 13:14 | 23.04155 | 112.21285 | 35093 ft | 494 kts | 82° |
| 2026-05-08 13:14 | 23.04930 | 112.28658 | 35092 ft | 494 kts | 82° |
| 2026-05-08 13:15 | 23.05705 | 112.36073 | 35088 ft | 495 kts | 82° |
| 2026-05-08 13:15 | 23.06475 | 112.43485 | 35083 ft | 495 kts | 82° |
| 2026-05-08 13:16 | 23.06808 | 112.50967 | 35077 ft | 497 kts | 90° |
| 2026-05-08 13:16 | 23.06412 | 112.58432 | 35077 ft | 498 kts | 93° |
| 2026-05-08 13:17 | 23.05877 | 112.65888 | 35070 ft | 497 kts | 94° |
| 2026-05-08 13:17 | 23.05354 | 112.73370 | 35067 ft | 498 kts | 94° |
| 2026-05-08 13:18 | 23.04837 | 112.80874 | 35070 ft | 498 kts | 94° |
| 2026-05-08 13:18 | 23.04324 | 112.88348 | 35057 ft | 498 kts | 94° |
| 2026-05-08 13:19 | 23.03809 | 112.95787 | 35045 ft | 499 kts | 94° |
| 2026-05-08 13:19 | 23.03283 | 113.03295 | 35035 ft | 498 kts | 94° |
| 2026-05-08 13:20 | 23.02238 | 113.10662 | 35030 ft | 497 kts | 109° |
| 2026-05-08 13:20 | 23.00854 | 113.14084 | 35037 ft | 496 kts | 121° |
| 2026-05-08 13:20 | 22.98892 | 113.17155 | 35040 ft | 492 kts | 133° |
| 2026-05-08 13:21 | 22.96485 | 113.19714 | 35044 ft | 487 kts | 144° |
| 2026-05-08 13:21 | 22.93701 | 113.21741 | 35051 ft | 482 kts | 155° |
| 2026-05-08 13:21 | 22.87490 | 113.24265 | 35052 ft | 475 kts | 167° |
| 2026-05-08 13:22 | 22.81113 | 113.26350 | 35046 ft | 476 kts | 167° |
| 2026-05-08 13:22 | 22.74781 | 113.28498 | 35044 ft | 476 kts | 166° |
| 2026-05-08 13:23 | 22.68460 | 113.30688 | 35047 ft | 476 kts | 166° |
| 2026-05-08 13:23 | 22.62115 | 113.32885 | 35046 ft | 477 kts | 166° |
| 2026-05-08 13:24 | 22.55814 | 113.35066 | 35044 ft | 477 kts | 166° |
| 2026-05-08 13:24 | 22.49432 | 113.37270 | 35048 ft | 477 kts | 165° |
| 2026-05-08 13:25 | 22.43115 | 113.39449 | 35051 ft | 477 kts | 165° |
| 2026-05-08 13:25 | 22.36780 | 113.41631 | 35052 ft | 477 kts | 165° |
| 2026-05-08 13:26 | 22.30463 | 113.43806 | 35050 ft | 476 kts | 165° |
| 2026-05-08 13:26 | 22.27297 | 113.44897 | 34736 ft | 476 kts | 165° |
| 2026-05-08 13:26 | 22.24183 | 113.45967 | 34236 ft | 472 kts | 165° |
| 2026-05-08 13:27 | 22.21059 | 113.47018 | 33735 ft | 465 kts | 168° |
| 2026-05-08 13:27 | 22.17903 | 113.47399 | 33286 ft | 449 kts | 188° |
| 2026-05-08 13:27 | 22.14947 | 113.46596 | 32850 ft | 431 kts | 209° |
| 2026-05-08 13:27 | 22.12574 | 113.44768 | 32448 ft | 414 kts | 230° |
| 2026-05-08 13:28 | 22.10957 | 113.42337 | 32077 ft | 401 kts | 246° |
| 2026-05-08 13:28 | 22.10027 | 113.39535 | 31699 ft | 390 kts | 261° |
| 2026-05-08 13:28 | 22.09833 | 113.36668 | 31316 ft | 381 kts | 275° |
| 2026-05-08 13:28 | 22.10331 | 113.33923 | 30921 ft | 375 kts | 289° |
| 2026-05-08 13:29 | 22.11470 | 113.31439 | 30596 ft | 369 kts | 303° |
| 2026-05-08 13:29 | 22.13154 | 113.29381 | 30341 ft | 369 kts | 317° |
| 2026-05-08 13:29 | 22.15327 | 113.27846 | 30073 ft | 371 kts | 333° |
| 2026-05-08 13:29 | 22.17777 | 113.26903 | 29981 ft | 373 kts | 340° |
| 2026-05-08 13:30 | 22.22760 | 113.25272 | 29929 ft | 374 kts | 340° |
| 2026-05-08 13:30 | 22.27734 | 113.23612 | 29915 ft | 374 kts | 340° |
| 2026-05-08 13:31 | 22.30297 | 113.23078 | 29901 ft | 379 kts | 354° |
| 2026-05-08 13:31 | 22.32993 | 113.23203 | 29679 ft | 399 kts | 5° |
| 2026-05-08 13:31 | 22.35724 | 113.23985 | 29429 ft | 420 kts | 19° |
| 2026-05-08 13:31 | 22.38357 | 113.25534 | 29171 ft | 440 kts | 33° |
| 2026-05-08 13:32 | 22.40620 | 113.27803 | 28917 ft | 458 kts | 49° |
| 2026-05-08 13:32 | 22.42341 | 113.30753 | 28661 ft | 475 kts | 64° |
| 2026-05-08 13:32 | 22.43300 | 113.34180 | 28414 ft | 483 kts | 81° |
| 2026-05-08 13:32 | 22.43365 | 113.37812 | 28173 ft | 484 kts | 97° |
| 2026-05-08 13:33 | 22.42524 | 113.41305 | 27930 ft | 481 kts | 113° |
| 2026-05-08 13:33 | 22.40873 | 113.44384 | 27693 ft | 477 kts | 129° |
| 2026-05-08 13:33 | 22.38515 | 113.46893 | 27450 ft | 472 kts | 144° |
| 2026-05-08 13:33 | 22.35960 | 113.48486 | 27232 ft | 467 kts | 159° |
| 2026-05-08 13:34 | 22.33555 | 113.49296 | 27046 ft | 462 kts | 171° |
| 2026-05-08 13:34 | 22.30337 | 113.49536 | 26805 ft | 456 kts | 186° |
| 2026-05-08 13:34 | 22.27252 | 113.48910 | 26574 ft | 452 kts | 196° |
| 2026-05-08 13:34 | 22.24180 | 113.48366 | 26311 ft | 455 kts | 183° |
| 2026-05-08 13:35 | 22.21002 | 113.48829 | 26067 ft | 458 kts | 165° |
| 2026-05-08 13:35 | 22.18017 | 113.49953 | 25842 ft | 458 kts | 161° |
| 2026-05-08 13:35 | 22.15017 | 113.51078 | 25602 ft | 456 kts | 163° |
| 2026-05-08 13:35 | 22.11953 | 113.52027 | 25358 ft | 453 kts | 167° |
| 2026-05-08 13:36 | 22.08892 | 113.52801 | 25118 ft | 451 kts | 169° |
| 2026-05-08 13:36 | 22.05846 | 113.53474 | 24886 ft | 449 kts | 170° |
| 2026-05-08 13:36 | 22.02783 | 113.54114 | 24567 ft | 440 kts | 170° |
| 2026-05-08 13:36 | 21.99802 | 113.54515 | 24219 ft | 430 kts | 179° |
| 2026-05-08 13:37 | 21.96846 | 113.54239 | 23860 ft | 419 kts | 194° |
| 2026-05-08 13:37 | 21.94139 | 113.53231 | 23624 ft | 409 kts | 205° |
| 2026-05-08 13:37 | 21.91529 | 113.51956 | 23387 ft | 409 kts | 206° |
| 2026-05-08 13:37 | 21.88962 | 113.50656 | 23147 ft | 408 kts | 207° |
| 2026-05-08 13:38 | 21.86414 | 113.49366 | 22909 ft | 407 kts | 206° |
| 2026-05-08 13:38 | 21.83850 | 113.48077 | 22671 ft | 406 kts | 206° |
| 2026-05-08 13:38 | 21.81280 | 113.46792 | 22424 ft | 405 kts | 206° |
| 2026-05-08 13:38 | 21.78731 | 113.45523 | 22166 ft | 405 kts | 206° |
| 2026-05-08 13:39 | 21.76181 | 113.44260 | 21985 ft | 394 kts | 206° |
| 2026-05-08 13:39 | 21.73761 | 113.43061 | 21889 ft | 381 kts | 206° |
| 2026-05-08 13:39 | 21.71285 | 113.42080 | 21728 ft | 371 kts | 190° |
| 2026-05-08 13:39 | 21.68760 | 113.42178 | 21551 ft | 363 kts | 165° |
| 2026-05-08 13:40 | 21.66537 | 113.43377 | 21123 ft | 361 kts | 139° |
| 2026-05-08 13:40 | 21.64785 | 113.45277 | 20734 ft | 358 kts | 131° |
| 2026-05-08 13:40 | 21.63099 | 113.47259 | 20323 ft | 357 kts | 132° |
| 2026-05-08 13:40 | 21.61422 | 113.49174 | 19923 ft | 355 kts | 133° |
| 2026-05-08 13:41 | 21.59683 | 113.51094 | 19512 ft | 354 kts | 134° |
| 2026-05-08 13:41 | 21.57976 | 113.52947 | 19111 ft | 352 kts | 135° |
| 2026-05-08 13:41 | 21.56306 | 113.54882 | 18670 ft | 351 kts | 124° |
| 2026-05-08 13:41 | 21.55376 | 113.57275 | 18221 ft | 348 kts | 97° |
| 2026-05-08 13:42 | 21.55553 | 113.59815 | 17805 ft | 343 kts | 70° |
| 2026-05-08 13:42 | 21.56682 | 113.61994 | 17394 ft | 338 kts | 47° |
| 2026-05-08 13:42 | 21.58366 | 113.63751 | 17015 ft | 335 kts | 41° |
| 2026-05-08 13:42 | 21.60073 | 113.65445 | 16624 ft | 333 kts | 42° |
| 2026-05-08 13:43 | 21.61753 | 113.67160 | 16234 ft | 332 kts | 43° |
| 2026-05-08 13:43 | 21.63403 | 113.68883 | 15846 ft | 330 kts | 43° |
| 2026-05-08 13:43 | 21.65024 | 113.70592 | 15460 ft | 328 kts | 42° |
| 2026-05-08 13:43 | 21.66712 | 113.72266 | 15067 ft | 327 kts | 41° |
| 2026-05-08 13:44 | 21.68383 | 113.73896 | 14679 ft | 325 kts | 41° |
| 2026-05-08 13:44 | 21.70062 | 113.75530 | 14291 ft | 323 kts | 41° |
| 2026-05-08 13:44 | 21.71711 | 113.77139 | 13909 ft | 322 kts | 41° |
| 2026-05-08 13:44 | 21.73358 | 113.78749 | 13526 ft | 320 kts | 40° |
| 2026-05-08 13:45 | 21.75016 | 113.80370 | 13142 ft | 318 kts | 40° |
| 2026-05-08 13:45 | 21.76641 | 113.81958 | 12871 ft | 312 kts | 40° |
| 2026-05-08 13:45 | 21.78232 | 113.83511 | 12892 ft | 311 kts | 40° |
| 2026-05-08 13:45 | 21.79833 | 113.85078 | 12916 ft | 312 kts | 41° |
| 2026-05-08 13:46 | 21.81448 | 113.86659 | 12938 ft | 312 kts | 40° |
| 2026-05-08 13:46 | 21.83057 | 113.88234 | 12948 ft | 313 kts | 40° |
| 2026-05-08 13:46 | 21.84540 | 113.89952 | 12936 ft | 315 kts | 57° |
| 2026-05-08 13:46 | 21.85286 | 113.92168 | 12947 ft | 318 kts | 82° |
| 2026-05-08 13:47 | 21.85384 | 113.94541 | 12959 ft | 318 kts | 89° |
| 2026-05-08 13:47 | 21.85404 | 113.96907 | 12959 ft | 319 kts | 89° |
| 2026-05-08 13:47 | 21.85430 | 113.99284 | 12959 ft | 318 kts | 88° |
| 2026-05-08 13:47 | 21.85471 | 114.01670 | 12958 ft | 318 kts | 88° |
| 2026-05-08 13:48 | 21.85523 | 114.04036 | 12958 ft | 317 kts | 87° |
| 2026-05-08 13:48 | 21.85582 | 114.06429 | 12959 ft | 317 kts | 87° |
| 2026-05-08 13:48 | 21.85644 | 114.08791 | 12959 ft | 317 kts | 87° |
| 2026-05-08 13:48 | 21.85707 | 114.11161 | 12959 ft | 318 kts | 87° |
| 2026-05-08 13:49 | 21.85770 | 114.13535 | 12957 ft | 318 kts | 87° |
| 2026-05-08 13:49 | 21.85831 | 114.15892 | 12956 ft | 319 kts | 87° |
| 2026-05-08 13:49 | 21.85895 | 114.18303 | 12957 ft | 319 kts | 87° |
| 2026-05-08 13:49 | 21.86109 | 114.20670 | 12955 ft | 318 kts | 77° |
| 2026-05-08 13:50 | 21.86742 | 114.22959 | 12960 ft | 316 kts | 67° |
| 2026-05-08 13:50 | 21.87600 | 114.25148 | 12961 ft | 316 kts | 65° |
| 2026-05-08 13:50 | 21.88493 | 114.27316 | 12959 ft | 316 kts | 65° |
| 2026-05-08 13:50 | 21.89372 | 114.29454 | 12859 ft | 317 kts | 65° |
| 2026-05-08 13:51 | 21.90263 | 114.31645 | 12436 ft | 318 kts | 65° |
| 2026-05-08 13:51 | 21.91143 | 114.33811 | 12030 ft | 317 kts | 63° |
| 2026-05-08 13:51 | 21.92450 | 114.35710 | 11530 ft | 315 kts | 36° |
| 2026-05-08 13:51 | 21.94393 | 114.36627 | 11189 ft | 306 kts | 7° |
| 2026-05-08 13:52 | 21.96499 | 114.36814 | 10892 ft | 300 kts | 2° |
| 2026-05-08 13:52 | 21.98126 | 114.36935 | 10658 ft | 297 kts | 3° |
| 2026-05-08 13:52 | 22.00853 | 114.37208 | 10227 ft | 293 kts | 5° |
| 2026-05-08 13:52 | 22.02877 | 114.37455 | 9864 ft | 291 kts | 6° |
| 2026-05-08 13:53 | 22.04895 | 114.37724 | 9498 ft | 290 kts | 6° |
| 2026-05-08 13:53 | 22.06223 | 114.37910 | 9263 ft | 288 kts | 7° |
| 2026-05-08 13:53 | 22.08190 | 114.38190 | 8918 ft | 286 kts | 7° |
| 2026-05-08 13:53 | 22.10815 | 114.38567 | 8426 ft | 284 kts | 7° |
| 2026-05-08 13:54 | 22.12789 | 114.38853 | 8058 ft | 282 kts | 7° |
| 2026-05-08 13:54 | 22.14084 | 114.39040 | 7813 ft | 281 kts | 7° |
| 2026-05-08 13:54 | 22.16654 | 114.39412 | 7335 ft | 279 kts | 7° |
| 2026-05-08 13:54 | 22.18591 | 114.39559 | 6941 ft | 279 kts | 356° |
| 2026-05-08 13:55 | 22.20499 | 114.39185 | 6582 ft | 277 kts | 343° |
| 2026-05-08 13:55 | 22.22305 | 114.38541 | 6235 ft | 275 kts | 341° |
| 2026-05-08 13:55 | 22.25913 | 114.37167 | 6006 ft | 275 kts | 341° |
| 2026-05-08 13:56 | 22.27744 | 114.36481 | 5993 ft | 275 kts | 342° |
| 2026-05-08 13:56 | 22.29546 | 114.35811 | 5988 ft | 275 kts | 342° |
| 2026-05-08 13:56 | 22.31368 | 114.35137 | 5987 ft | 275 kts | 342° |
| 2026-05-08 13:56 | 22.33177 | 114.34470 | 5985 ft | 276 kts | 342° |
| 2026-05-08 13:57 | 22.34975 | 114.33807 | 5936 ft | 266 kts | 341° |
| 2026-05-08 13:57 | 22.36135 | 114.33379 | 5726 ft | 264 kts | 342° |
| 2026-05-08 13:57 | 22.38436 | 114.32513 | 5357 ft | 259 kts | 338° |
| 2026-05-08 13:57 | 22.39888 | 114.31408 | 5041 ft | 258 kts | 308° |
| 2026-05-08 13:58 | 22.40628 | 114.29665 | 4806 ft | 253 kts | 282° |
| 2026-05-08 13:58 | 22.40772 | 114.28827 | 4767 ft | 248 kts | 280° |
| 2026-05-08 13:58 | 22.40947 | 114.27710 | 4726 ft | 245 kts | 280° |
| 2026-05-08 13:58 | 22.41235 | 114.25887 | 4659 ft | 246 kts | 281° |
| 2026-05-08 13:59 | 22.41626 | 114.23475 | 4510 ft | 240 kts | 276° |
| 2026-05-08 13:59 | 22.41584 | 114.22311 | 4456 ft | 233 kts | 256° |
| 2026-05-08 13:59 | 22.40896 | 114.20084 | 4477 ft | 234 kts | 249° |
| 2026-05-08 13:59 | 22.40336 | 114.18461 | 4538 ft | 222 kts | 250° |
| 2026-05-08 14:00 | 22.39833 | 114.16972 | 4539 ft | 200 kts | 250° |
| 2026-05-08 14:00 | 22.39389 | 114.15624 | 4438 ft | 178 kts | 250° |
| 2026-05-08 14:00 | 22.38993 | 114.14404 | 4469 ft | 169 kts | 251° |
| 2026-05-08 14:00 | 22.38741 | 114.13623 | 4463 ft | 162 kts | 251° |
| 2026-05-08 14:01 | 22.38255 | 114.12092 | 4462 ft | 159 kts | 251° |
| 2026-05-08 14:01 | 22.37909 | 114.10960 | 4472 ft | 159 kts | 251° |
| 2026-05-08 14:01 | 22.37557 | 114.09826 | 4359 ft | 160 kts | 252° |
| 2026-05-08 14:01 | 22.37203 | 114.08699 | 4164 ft | 159 kts | 250° |
| 2026-05-08 14:02 | 22.36808 | 114.07575 | 3905 ft | 159 kts | 248° |
| 2026-05-08 14:02 | 22.36384 | 114.06481 | 3599 ft | 159 kts | 250° |
| 2026-05-08 14:02 | 22.36129 | 114.05731 | 3402 ft | 160 kts | 249° |
| 2026-05-08 14:02 | 22.35609 | 114.04229 | 3025 ft | 159 kts | 251° |
| 2026-05-08 14:03 | 22.35236 | 114.03113 | 2709 ft | 159 kts | 252° |
| 2026-05-08 14:03 | 22.34941 | 114.01962 | 2289 ft | 161 kts | 256° |
| 2026-05-08 14:03 | 22.34613 | 114.00781 | 1709 ft | 172 kts | 250° |
| 2026-05-08 14:03 | 22.34211 | 113.99597 | 1348 ft | 164 kts | 253° |
| 2026-05-08 14:04 | 22.33887 | 113.98451 | 1057 ft | 153 kts | 252° |
| 2026-05-08 14:04 | 22.33540 | 113.97407 | 797 ft | 146 kts | 250° |
| 2026-05-08 14:04 | 22.33211 | 113.96375 | 657 ft | 145 kts | 252° |
| 2026-05-08 14:04 | 22.32887 | 113.95347 | 477 ft | 143 kts | 251° |
| 2026-05-08 14:05 | 22.32558 | 113.94353 | 396 ft | 143 kts | 253° |
| 2026-05-08 14:05 | 22.32245 | 113.93372 | 205 ft | 141 kts | 251° |
| 2026-05-08 14:05 | 22.31935 | 113.92405 | 53 ft | 138 kts | 251° |
| 2026-05-08 14:05 | 22.31650 | 113.91525 | 36 ft | 111 kts | 251° |
| 2026-05-08 14:06 | 22.31457 | 113.90923 | 36 ft | 62 kts | 250° |
| 2026-05-08 14:06 | 22.31380 | 113.90688 | 36 ft | 44 kts | 248° |
| 2026-05-08 14:06 | 22.31279 | 113.90392 | 35 ft | 9 kts | 243° |
| 2026-05-08 14:06 | 22.31261 | 113.90369 | 35 ft | 2 kts | 181° |
| 2026-05-08 14:07 | 22.31246 | 113.90373 | 35 ft | 4 kts | 159° |
| 2026-05-08 14:07 | 22.31198 | 113.90393 | 35 ft | 6 kts | 158° |
| 2026-05-08 14:07 | 22.31155 | 113.90413 | 35 ft | 2 kts | 156° |
| 2026-05-08 14:08 | 22.31143 | 113.90423 | 35 ft | 0 kts | 134° |
| 2026-05-08 14:10 | 22.31142 | 113.90424 | 35 ft | 0 kts | 136° |
| 2026-05-08 14:10 | 22.31129 | 113.90440 | 35 ft | 6 kts | 127° |
| 2026-05-08 14:10 | 22.31095 | 113.90489 | 35 ft | 13 kts | 128° |
| 2026-05-08 14:11 | 22.31063 | 113.90555 | 35 ft | 12 kts | 92° |
| 2026-05-08 14:11 | 22.31083 | 113.90630 | 35 ft | 10 kts | 71° |
| 2026-05-08 14:11 | 22.31099 | 113.90678 | 35 ft | 10 kts | 71° |
| 2026-05-08 14:11 | 22.31129 | 113.90770 | 36 ft | 11 kts | 70° |
| 2026-05-08 14:12 | 22.31149 | 113.90833 | 36 ft | 11 kts | 70° |
| 2026-05-08 14:12 | 22.31171 | 113.90900 | 36 ft | 12 kts | 72° |
| 2026-05-08 14:12 | 22.31195 | 113.90977 | 36 ft | 10 kts | 70° |
| 2026-05-08 14:12 | 22.31170 | 113.91026 | 35 ft | 9 kts | 158° |
| 2026-05-08 14:13 | 22.31119 | 113.91046 | 35 ft | 12 kts | 160° |
| 2026-05-08 14:13 | 22.31057 | 113.91070 | 35 ft | 15 kts | 161° |
| 2026-05-08 14:13 | 22.30960 | 113.91104 | 36 ft | 18 kts | 162° |
| 2026-05-08 14:13 | 22.30849 | 113.91148 | 36 ft | 14 kts | 160° |
| 2026-05-08 14:14 | 22.30776 | 113.91176 | 36 ft | 19 kts | 161° |
| 2026-05-08 14:14 | 22.30680 | 113.91202 | 36 ft | 12 kts | 189° |
| 2026-05-08 14:14 | 22.30629 | 113.91129 | 36 ft | 14 kts | 252° |
| 2026-05-08 14:14 | 22.30589 | 113.91005 | 35 ft | 21 kts | 251° |
| 2026-05-08 14:15 | 22.30539 | 113.90846 | 36 ft | 21 kts | 251° |
| 2026-05-08 14:15 | 22.30504 | 113.90746 | 36 ft | 6 kts | 249° |
| 2026-05-08 14:15 | 22.30487 | 113.90697 | 36 ft | 7 kts | 249° |
| 2026-05-08 14:15 | 22.30448 | 113.90647 | 36 ft | 10 kts | 197° |
| 2026-05-08 14:16 | 22.30393 | 113.90643 | 36 ft | 11 kts | 174° |
| 2026-05-08 14:16 | 22.30265 | 113.90681 | 36 ft | 14 kts | 162° |
| 2026-05-08 14:16 | 22.30160 | 113.90723 | 35 ft | 12 kts | 158° |
| 2026-05-08 14:16 | 22.30127 | 113.90791 | 35 ft | 12 kts | 75° |
| 2026-05-08 14:17 | 22.30153 | 113.90887 | 36 ft | 14 kts | 79° |
| 2026-05-08 14:17 | 22.30146 | 113.90990 | 36 ft | 12 kts | 100° |
| 2026-05-08 14:17 | 22.30138 | 113.91033 | 36 ft | 0 kts | 101° |
| 2026-05-08 14:18 | 22.30132 | 113.91066 | 36 ft | 14 kts | 101° |
| 2026-05-08 14:18 | 22.30116 | 113.91155 | 36 ft | 21 kts | 101° |
| 2026-05-08 14:18 | 22.30117 | 113.91327 | 36 ft | 29 kts | 78° |
| 2026-05-08 14:19 | 22.30059 | 113.91585 | 36 ft | 12 kts | 153° |
| 2026-05-08 14:19 | 22.30033 | 113.91670 | 36 ft | 12 kts | 98° |
| 2026-05-08 14:19 | 22.29960 | 113.91727 | 36 ft | 12 kts | 162° |
| 2026-05-08 14:19 | 22.29891 | 113.91759 | 36 ft | 12 kts | 151° |
| 2026-05-08 14:20 | 22.29817 | 113.91801 | 36 ft | 13 kts | 152° |
| 2026-05-08 14:20 | 22.29775 | 113.91821 | 36 ft | 1 kts | 160° |
| 2026-05-08 14:20 | 22.29754 | 113.91821 | 36 ft | 5 kts | 214° |
| 2026-05-08 14:20 | 22.29734 | 113.91779 | 36 ft | 9 kts | 253° |
| 2026-05-08 14:21 | 22.29723 | 113.91743 | 36 ft | 3 kts | 251° |
| 2026-05-08 14:21 | 22.29722 | 113.91740 | 36 ft | 0 kts | 251° |